AAL983 CYDF-CYHZ
Flight info
| Callsign | AAL983 |
|---|---|
| Flight time | 1h 0m |
| Altitude | 38000 |
| Route | CAYLY CABOT5 |
| Aircraft | A339/H-SADE1E2E3GHIJ3J5M1P2RWXY/LB2D1 |
Departure
| Time | 2026-04-26 11:58 |
|---|---|
| Airport | Deer Lake Airport (CYDF) |
Arrival
| Time | 2026-04-26 12:58 |
|---|---|
| Airport | Halifax / Stanfield International Airport (CYHZ) |
| Time | Latitude | Longitude | Altitude | Speed | Heading |
|---|---|---|---|---|---|
| 2026-04-26 11:46 | 49.20919 | -57.39908 | 64 ft | 0 kts | 317° |
| 2026-04-26 11:51 | 49.20918 | -57.39907 | 64 ft | 2 kts | 317° |
| 2026-04-26 11:51 | 49.20893 | -57.39868 | 63 ft | 6 kts | 283° |
| 2026-04-26 11:52 | 49.20889 | -57.39848 | 55 ft | 0 kts | 242° |
| 2026-04-26 11:53 | 49.20873 | -57.39853 | 55 ft | 5 kts | 198° |
| 2026-04-26 11:54 | 49.20702 | -57.39815 | 57 ft | 15 kts | 215° |
| 2026-04-26 11:54 | 49.20649 | -57.39914 | 49 ft | 11 kts | 226° |
| 2026-04-26 11:54 | 49.20600 | -57.39989 | 55 ft | 9 kts | 224° |
| 2026-04-26 11:54 | 49.20534 | -57.40084 | 55 ft | 16 kts | 223° |
| 2026-04-26 11:55 | 49.20454 | -57.40201 | 56 ft | 15 kts | 224° |
| 2026-04-26 11:55 | 49.20391 | -57.40305 | 56 ft | 13 kts | 229° |
| 2026-04-26 11:55 | 49.20307 | -57.40447 | 52 ft | 20 kts | 227° |
| 2026-04-26 11:55 | 49.20234 | -57.40605 | 56 ft | 15 kts | 240° |
| 2026-04-26 11:56 | 49.20188 | -57.40623 | 53 ft | 1 kts | 151° |
| 2026-04-26 11:56 | 49.20191 | -57.40596 | 51 ft | 3 kts | 81° |
| 2026-04-26 11:56 | 49.20197 | -57.40588 | 58 ft | 0 kts | 58° |
| 2026-04-26 11:56 | 49.20199 | -57.40587 | 58 ft | 0 kts | 52° |
| 2026-04-26 11:57 | 49.20296 | -57.40423 | 52 ft | 59 kts | 47° |
| 2026-04-26 11:58 | 49.20771 | -57.39681 | 49 ft | 133 kts | 45° |
| 2026-04-26 11:58 | 49.21551 | -57.38476 | 155 ft | 177 kts | 43° |
| 2026-04-26 11:58 | 49.22417 | -57.37103 | 812 ft | 192 kts | 44° |
| 2026-04-26 11:58 | 49.23389 | -57.35590 | 1358 ft | 216 kts | 41° |
| 2026-04-26 11:59 | 49.24483 | -57.33909 | 2018 ft | 224 kts | 41° |
| 2026-04-26 11:59 | 49.25606 | -57.32183 | 2611 ft | 232 kts | 40° |
| 2026-04-26 11:59 | 49.26734 | -57.30451 | 3063 ft | 227 kts | 40° |
| 2026-04-26 11:59 | 49.27848 | -57.28744 | 3577 ft | 226 kts | 40° |
| 2026-04-26 12:00 | 49.28961 | -57.27041 | 4066 ft | 226 kts | 41° |
| 2026-04-26 12:00 | 49.30069 | -57.25344 | 4575 ft | 224 kts | 41° |
| 2026-04-26 12:00 | 49.31177 | -57.23645 | 5067 ft | 227 kts | 41° |
| 2026-04-26 12:00 | 49.32306 | -57.21910 | 5559 ft | 232 kts | 41° |
| 2026-04-26 12:01 | 49.33273 | -57.19940 | 6056 ft | 242 kts | 60° |
| 2026-04-26 12:01 | 49.33586 | -57.17319 | 6607 ft | 262 kts | 85° |
| 2026-04-26 12:01 | 49.33075 | -57.14546 | 7147 ft | 282 kts | 110° |
| 2026-04-26 12:01 | 49.31775 | -57.12188 | 7693 ft | 301 kts | 136° |
| 2026-04-26 12:02 | 49.29877 | -57.10688 | 8251 ft | 313 kts | 156° |
| 2026-04-26 12:02 | 49.27820 | -57.09513 | 8805 ft | 317 kts | 155° |
| 2026-04-26 12:02 | 49.25743 | -57.08322 | 9368 ft | 320 kts | 155° |
| 2026-04-26 12:02 | 49.23650 | -57.07120 | 9927 ft | 323 kts | 155° |
| 2026-04-26 12:03 | 49.21470 | -57.06210 | 10428 ft | 330 kts | 173° |
| 2026-04-26 12:03 | 49.19169 | -57.06513 | 10962 ft | 335 kts | 198° |
| 2026-04-26 12:03 | 49.17102 | -57.08078 | 11505 ft | 331 kts | 222° |
| 2026-04-26 12:03 | 49.15312 | -57.10301 | 12058 ft | 333 kts | 225° |
| 2026-04-26 12:04 | 49.13515 | -57.12552 | 12617 ft | 337 kts | 224° |
| 2026-04-26 12:04 | 49.11688 | -57.14836 | 13182 ft | 342 kts | 224° |
| 2026-04-26 12:04 | 49.09832 | -57.17154 | 13756 ft | 347 kts | 224° |
| 2026-04-26 12:04 | 49.07945 | -57.19505 | 14262 ft | 352 kts | 224° |
| 2026-04-26 12:05 | 49.06037 | -57.21882 | 14786 ft | 356 kts | 224° |
| 2026-04-26 12:05 | 49.04134 | -57.24252 | 15310 ft | 360 kts | 224° |
| 2026-04-26 12:05 | 49.02186 | -57.26682 | 15845 ft | 363 kts | 224° |
| 2026-04-26 12:05 | 49.00224 | -57.29135 | 16398 ft | 367 kts | 224° |
| 2026-04-26 12:06 | 48.98245 | -57.31615 | 16947 ft | 370 kts | 224° |
| 2026-04-26 12:06 | 48.96248 | -57.34116 | 17516 ft | 373 kts | 224° |
| 2026-04-26 12:06 | 48.94238 | -57.36639 | 18089 ft | 375 kts | 224° |
| 2026-04-26 12:06 | 48.92220 | -57.39172 | 18609 ft | 377 kts | 224° |
| 2026-04-26 12:07 | 48.90193 | -57.41715 | 19112 ft | 379 kts | 224° |
| 2026-04-26 12:07 | 48.88146 | -57.44281 | 19636 ft | 381 kts | 224° |
| 2026-04-26 12:07 | 48.86095 | -57.46847 | 20158 ft | 382 kts | 224° |
| 2026-04-26 12:07 | 48.84039 | -57.49417 | 20696 ft | 383 kts | 224° |
| 2026-04-26 12:08 | 48.81971 | -57.51997 | 21237 ft | 384 kts | 224° |
| 2026-04-26 12:08 | 48.79905 | -57.54568 | 21799 ft | 384 kts | 224° |
| 2026-04-26 12:08 | 48.77834 | -57.57144 | 22357 ft | 384 kts | 224° |
| 2026-04-26 12:08 | 48.75796 | -57.59676 | 22926 ft | 383 kts | 224° |
| 2026-04-26 12:09 | 48.73732 | -57.62236 | 23436 ft | 384 kts | 224° |
| 2026-04-26 12:09 | 48.71664 | -57.64803 | 23849 ft | 386 kts | 224° |
| 2026-04-26 12:09 | 48.69586 | -57.67398 | 24253 ft | 387 kts | 224° |
| 2026-04-26 12:09 | 48.67507 | -57.70011 | 24659 ft | 389 kts | 224° |
| 2026-04-26 12:10 | 48.65413 | -57.72664 | 24861 ft | 397 kts | 224° |
| 2026-04-26 12:10 | 48.63267 | -57.75401 | 24911 ft | 410 kts | 224° |
| 2026-04-26 12:10 | 48.61048 | -57.78247 | 24904 ft | 425 kts | 224° |
| 2026-04-26 12:10 | 48.58763 | -57.81188 | 24920 ft | 438 kts | 224° |
| 2026-04-26 12:11 | 48.56407 | -57.84235 | 24914 ft | 452 kts | 224° |
| 2026-04-26 12:11 | 48.53990 | -57.87372 | 24900 ft | 466 kts | 224° |
| 2026-04-26 12:11 | 48.51538 | -57.90564 | 24914 ft | 471 kts | 224° |
| 2026-04-26 12:11 | 48.49061 | -57.93788 | 24913 ft | 468 kts | 224° |
| 2026-04-26 12:12 | 48.46594 | -57.96997 | 24914 ft | 469 kts | 224° |
| 2026-04-26 12:12 | 48.44121 | -58.00214 | 24917 ft | 469 kts | 224° |
| 2026-04-26 12:12 | 48.41651 | -58.03427 | 24918 ft | 468 kts | 224° |
| 2026-04-26 12:12 | 48.40018 | -58.05551 | 24917 ft | 469 kts | 224° |
| 2026-04-26 12:13 | 48.36716 | -58.09849 | 24920 ft | 468 kts | 224° |
| 2026-04-26 12:13 | 48.34255 | -58.13048 | 24921 ft | 468 kts | 224° |
| 2026-04-26 12:13 | 48.31786 | -58.16263 | 24920 ft | 468 kts | 224° |
| 2026-04-26 12:13 | 48.29363 | -58.19417 | 24922 ft | 467 kts | 224° |
| 2026-04-26 12:14 | 48.26907 | -58.22615 | 24926 ft | 467 kts | 224° |
| 2026-04-26 12:14 | 48.24454 | -58.25811 | 24924 ft | 467 kts | 224° |
| 2026-04-26 12:14 | 48.22002 | -58.29005 | 24926 ft | 466 kts | 224° |
| 2026-04-26 12:14 | 48.19553 | -58.32197 | 24925 ft | 466 kts | 224° |
| 2026-04-26 12:15 | 48.17109 | -58.35384 | 24934 ft | 465 kts | 224° |
| 2026-04-26 12:15 | 48.14673 | -58.38562 | 24927 ft | 465 kts | 224° |
| 2026-04-26 12:15 | 48.12237 | -58.41744 | 24934 ft | 464 kts | 224° |
| 2026-04-26 12:15 | 48.09808 | -58.44915 | 24935 ft | 464 kts | 224° |
| 2026-04-26 12:16 | 48.07379 | -58.48087 | 24937 ft | 463 kts | 224° |
| 2026-04-26 12:16 | 48.04954 | -58.51255 | 24938 ft | 462 kts | 224° |
| 2026-04-26 12:16 | 48.02533 | -58.54419 | 24938 ft | 462 kts | 224° |
| 2026-04-26 12:16 | 48.00118 | -58.57576 | 24935 ft | 461 kts | 224° |
| 2026-04-26 12:17 | 47.97703 | -58.60733 | 24944 ft | 460 kts | 224° |
| 2026-04-26 12:17 | 47.95297 | -58.63880 | 24943 ft | 460 kts | 224° |
| 2026-04-26 12:17 | 47.92895 | -58.67025 | 24944 ft | 459 kts | 224° |
| 2026-04-26 12:17 | 47.90493 | -58.70166 | 24941 ft | 459 kts | 225° |
| 2026-04-26 12:18 | 47.88122 | -58.73263 | 24947 ft | 459 kts | 224° |
| 2026-04-26 12:18 | 47.85720 | -58.76394 | 24947 ft | 458 kts | 225° |
| 2026-04-26 12:18 | 47.83322 | -58.79522 | 24949 ft | 458 kts | 225° |
| 2026-04-26 12:18 | 47.80925 | -58.82642 | 24947 ft | 458 kts | 225° |
| 2026-04-26 12:19 | 47.78530 | -58.85756 | 24946 ft | 457 kts | 225° |
| 2026-04-26 12:19 | 47.76133 | -58.88872 | 24950 ft | 457 kts | 225° |
| 2026-04-26 12:19 | 47.73819 | -58.92087 | 24953 ft | 454 kts | 231° |
| 2026-04-26 12:19 | 47.71809 | -58.95672 | 24958 ft | 451 kts | 237° |
| 2026-04-26 12:20 | 47.69876 | -58.99346 | 24954 ft | 451 kts | 237° |
| 2026-04-26 12:20 | 47.67946 | -59.03013 | 24959 ft | 451 kts | 237° |
| 2026-04-26 12:20 | 47.66014 | -59.06676 | 24960 ft | 450 kts | 237° |
| 2026-04-26 12:20 | 47.64082 | -59.10335 | 24961 ft | 450 kts | 237° |
| 2026-04-26 12:21 | 47.62174 | -59.13947 | 24965 ft | 450 kts | 237° |
| 2026-04-26 12:21 | 47.60239 | -59.17601 | 24965 ft | 450 kts | 237° |
| 2026-04-26 12:21 | 47.58306 | -59.21245 | 24969 ft | 450 kts | 237° |
| 2026-04-26 12:21 | 47.56362 | -59.24903 | 24967 ft | 450 kts | 237° |
| 2026-04-26 12:22 | 47.54426 | -59.28541 | 24975 ft | 450 kts | 237° |
| 2026-04-26 12:22 | 47.52492 | -59.32178 | 24972 ft | 450 kts | 237° |
| 2026-04-26 12:22 | 47.50553 | -59.35821 | 24976 ft | 450 kts | 237° |
| 2026-04-26 12:22 | 47.48618 | -59.39455 | 24978 ft | 450 kts | 237° |
| 2026-04-26 12:23 | 47.46707 | -59.43039 | 24983 ft | 450 kts | 237° |
| 2026-04-26 12:23 | 47.44766 | -59.46679 | 24988 ft | 450 kts | 237° |
| 2026-04-26 12:23 | 47.42825 | -59.50315 | 24985 ft | 450 kts | 237° |
| 2026-04-26 12:23 | 47.40886 | -59.53942 | 24989 ft | 450 kts | 237° |
| 2026-04-26 12:24 | 47.38932 | -59.57548 | 24988 ft | 452 kts | 233° |
| 2026-04-26 12:24 | 47.36582 | -59.60683 | 24984 ft | 459 kts | 218° |
| 2026-04-26 12:24 | 47.33906 | -59.63272 | 25000 ft | 461 kts | 216° |
| 2026-04-26 12:25 | 47.28514 | -59.68382 | 24997 ft | 460 kts | 216° |
| 2026-04-26 12:25 | 47.25823 | -59.70931 | 24997 ft | 460 kts | 216° |
| 2026-04-26 12:25 | 47.23128 | -59.73481 | 24998 ft | 460 kts | 216° |
| 2026-04-26 12:25 | 47.20473 | -59.75993 | 25005 ft | 460 kts | 216° |
| 2026-04-26 12:26 | 47.17779 | -59.78541 | 25002 ft | 460 kts | 216° |
| 2026-04-26 12:26 | 47.15092 | -59.81083 | 24999 ft | 459 kts | 216° |
| 2026-04-26 12:26 | 47.12408 | -59.83621 | 25001 ft | 459 kts | 216° |
| 2026-04-26 12:26 | 47.09716 | -59.86166 | 25005 ft | 459 kts | 216° |
| 2026-04-26 12:27 | 47.07029 | -59.88706 | 25009 ft | 459 kts | 216° |
| 2026-04-26 12:27 | 47.04489 | -59.91481 | 25014 ft | 453 kts | 227° |
| 2026-04-26 12:27 | 47.02470 | -59.94961 | 25011 ft | 444 kts | 242° |
| 2026-04-26 12:27 | 47.00837 | -59.98796 | 25016 ft | 443 kts | 244° |
| 2026-04-26 12:28 | 46.99249 | -60.02585 | 25018 ft | 442 kts | 244° |
| 2026-04-26 12:28 | 46.97641 | -60.06429 | 25021 ft | 441 kts | 244° |
| 2026-04-26 12:28 | 46.96038 | -60.10266 | 25024 ft | 441 kts | 244° |
| 2026-04-26 12:28 | 46.94441 | -60.14094 | 25025 ft | 440 kts | 244° |
| 2026-04-26 12:29 | 46.92844 | -60.17928 | 25022 ft | 440 kts | 244° |
| 2026-04-26 12:29 | 46.91243 | -60.21749 | 25023 ft | 440 kts | 242° |
| 2026-04-26 12:29 | 46.87366 | -60.28784 | 25027 ft | 445 kts | 234° |
| 2026-04-26 12:30 | 46.85357 | -60.32219 | 25024 ft | 444 kts | 234° |
| 2026-04-26 12:30 | 46.83353 | -60.35647 | 25037 ft | 444 kts | 234° |
| 2026-04-26 12:30 | 46.81348 | -60.39082 | 25024 ft | 444 kts | 234° |
| 2026-04-26 12:31 | 46.77367 | -60.45900 | 25034 ft | 443 kts | 234° |
| 2026-04-26 12:31 | 46.75372 | -60.49323 | 25019 ft | 443 kts | 234° |
| 2026-04-26 12:31 | 46.73380 | -60.52737 | 25016 ft | 442 kts | 234° |
| 2026-04-26 12:31 | 46.71387 | -60.56156 | 25029 ft | 442 kts | 234° |
| 2026-04-26 12:32 | 46.69396 | -60.59572 | 25025 ft | 442 kts | 234° |
| 2026-04-26 12:32 | 46.67408 | -60.62981 | 25024 ft | 441 kts | 234° |
| 2026-04-26 12:32 | 46.63440 | -60.69791 | 25024 ft | 441 kts | 234° |
| 2026-04-26 12:33 | 46.61476 | -60.73160 | 25024 ft | 441 kts | 234° |
| 2026-04-26 12:33 | 46.59495 | -60.76559 | 25021 ft | 441 kts | 234° |
| 2026-04-26 12:33 | 46.57517 | -60.79958 | 25021 ft | 440 kts | 234° |
| 2026-04-26 12:33 | 46.55537 | -60.83351 | 25020 ft | 440 kts | 234° |
| 2026-04-26 12:34 | 46.53557 | -60.86746 | 25019 ft | 440 kts | 234° |
| 2026-04-26 12:34 | 46.51581 | -60.90134 | 25018 ft | 439 kts | 234° |
| 2026-04-26 12:34 | 46.49607 | -60.93516 | 25016 ft | 439 kts | 234° |
| 2026-04-26 12:34 | 46.47630 | -60.96898 | 25017 ft | 439 kts | 234° |
| 2026-04-26 12:35 | 46.45656 | -61.00279 | 25017 ft | 439 kts | 234° |
| 2026-04-26 12:35 | 46.43677 | -61.03669 | 25021 ft | 439 kts | 234° |
| 2026-04-26 12:35 | 46.41701 | -61.07051 | 25024 ft | 441 kts | 234° |
| 2026-04-26 12:35 | 46.39690 | -61.10503 | 25023 ft | 454 kts | 234° |
| 2026-04-26 12:36 | 46.37680 | -61.13962 | 25025 ft | 453 kts | 234° |
| 2026-04-26 12:36 | 46.35645 | -61.17454 | 25029 ft | 452 kts | 234° |
| 2026-04-26 12:36 | 46.33600 | -61.20919 | 24909 ft | 453 kts | 233° |
| 2026-04-26 12:36 | 46.31538 | -61.24363 | 24699 ft | 451 kts | 233° |
| 2026-04-26 12:37 | 46.29486 | -61.27761 | 24678 ft | 448 kts | 233° |
| 2026-04-26 12:37 | 46.27423 | -61.31162 | 24677 ft | 450 kts | 233° |
| 2026-04-26 12:37 | 46.25356 | -61.34564 | 24677 ft | 450 kts | 233° |
| 2026-04-26 12:37 | 46.23288 | -61.37963 | 24510 ft | 450 kts | 233° |
| 2026-04-26 12:38 | 46.21230 | -61.41339 | 24265 ft | 447 kts | 233° |
| 2026-04-26 12:38 | 46.19307 | -61.44491 | 24053 ft | 444 kts | 233° |
| 2026-04-26 12:38 | 46.17268 | -61.47829 | 23816 ft | 441 kts | 233° |
| 2026-04-26 12:38 | 46.15262 | -61.51111 | 23569 ft | 440 kts | 233° |
| 2026-04-26 12:39 | 46.13245 | -61.54409 | 23297 ft | 438 kts | 233° |
| 2026-04-26 12:39 | 46.11231 | -61.57699 | 23022 ft | 436 kts | 233° |
| 2026-04-26 12:39 | 46.09227 | -61.60967 | 22738 ft | 434 kts | 233° |
| 2026-04-26 12:39 | 46.07235 | -61.64213 | 22468 ft | 432 kts | 233° |
| 2026-04-26 12:40 | 46.05249 | -61.67444 | 22221 ft | 430 kts | 233° |
| 2026-04-26 12:40 | 46.03266 | -61.70665 | 21943 ft | 428 kts | 233° |
| 2026-04-26 12:40 | 46.01289 | -61.73874 | 21673 ft | 426 kts | 233° |
| 2026-04-26 12:40 | 45.99344 | -61.77027 | 21419 ft | 424 kts | 233° |
| 2026-04-26 12:41 | 45.97386 | -61.80196 | 21155 ft | 423 kts | 233° |
| 2026-04-26 12:41 | 45.95434 | -61.83354 | 20894 ft | 421 kts | 233° |
| 2026-04-26 12:41 | 45.93491 | -61.86493 | 20635 ft | 419 kts | 233° |
| 2026-04-26 12:41 | 45.91559 | -61.89611 | 20387 ft | 418 kts | 233° |
| 2026-04-26 12:42 | 45.89631 | -61.92718 | 20147 ft | 416 kts | 233° |
| 2026-04-26 12:42 | 45.87710 | -61.95813 | 19895 ft | 414 kts | 233° |
| 2026-04-26 12:42 | 45.85792 | -61.98897 | 19645 ft | 413 kts | 233° |
| 2026-04-26 12:42 | 45.83885 | -62.01963 | 19400 ft | 411 kts | 233° |
| 2026-04-26 12:43 | 45.81980 | -62.05022 | 19151 ft | 410 kts | 233° |
| 2026-04-26 12:43 | 45.80081 | -62.08065 | 18908 ft | 409 kts | 233° |
| 2026-04-26 12:43 | 45.78191 | -62.11090 | 18669 ft | 407 kts | 232° |
| 2026-04-26 12:43 | 45.76299 | -62.14114 | 18434 ft | 407 kts | 232° |
| 2026-04-26 12:44 | 45.74410 | -62.17129 | 18161 ft | 405 kts | 232° |
| 2026-04-26 12:44 | 45.72560 | -62.20082 | 17890 ft | 403 kts | 232° |
| 2026-04-26 12:44 | 45.70667 | -62.23098 | 17616 ft | 401 kts | 232° |
| 2026-04-26 12:44 | 45.68826 | -62.26030 | 17340 ft | 399 kts | 232° |
| 2026-04-26 12:45 | 45.66971 | -62.28986 | 17074 ft | 397 kts | 232° |
| 2026-04-26 12:45 | 45.65745 | -62.30934 | 16900 ft | 397 kts | 232° |
| 2026-04-26 12:45 | 45.63903 | -62.33860 | 16642 ft | 395 kts | 232° |
| 2026-04-26 12:45 | 45.62064 | -62.36775 | 16376 ft | 393 kts | 232° |
| 2026-04-26 12:46 | 45.60239 | -62.39668 | 16122 ft | 391 kts | 232° |
| 2026-04-26 12:46 | 45.58424 | -62.42543 | 15863 ft | 389 kts | 232° |
| 2026-04-26 12:46 | 45.56612 | -62.45409 | 15612 ft | 387 kts | 232° |
| 2026-04-26 12:46 | 45.54808 | -62.48257 | 15362 ft | 386 kts | 232° |
| 2026-04-26 12:47 | 45.53015 | -62.51087 | 15106 ft | 384 kts | 232° |
| 2026-04-26 12:47 | 45.51229 | -62.53902 | 14859 ft | 382 kts | 231° |
| 2026-04-26 12:47 | 45.49448 | -62.56709 | 14611 ft | 380 kts | 231° |
| 2026-04-26 12:47 | 45.47700 | -62.59458 | 14380 ft | 378 kts | 231° |
| 2026-04-26 12:48 | 45.45937 | -62.62228 | 14127 ft | 376 kts | 231° |
| 2026-04-26 12:48 | 45.44178 | -62.64982 | 13890 ft | 375 kts | 231° |
| 2026-04-26 12:48 | 45.42423 | -62.67723 | 13644 ft | 373 kts | 231° |
| 2026-04-26 12:48 | 45.40676 | -62.70448 | 13373 ft | 372 kts | 231° |
| 2026-04-26 12:49 | 45.38936 | -62.73162 | 13117 ft | 370 kts | 231° |
| 2026-04-26 12:49 | 45.37201 | -62.75867 | 12863 ft | 369 kts | 231° |
| 2026-04-26 12:49 | 45.35475 | -62.78555 | 12618 ft | 368 kts | 231° |
| 2026-04-26 12:49 | 45.33747 | -62.81239 | 12361 ft | 367 kts | 231° |
| 2026-04-26 12:50 | 45.32025 | -62.83908 | 12128 ft | 365 kts | 231° |
| 2026-04-26 12:50 | 45.30308 | -62.86562 | 11896 ft | 364 kts | 231° |
| 2026-04-26 12:50 | 45.28613 | -62.89160 | 11626 ft | 363 kts | 230° |
| 2026-04-26 12:50 | 45.26906 | -62.91769 | 11346 ft | 354 kts | 230° |
| 2026-04-26 12:51 | 45.25261 | -62.94282 | 11065 ft | 341 kts | 230° |
| 2026-04-26 12:51 | 45.23640 | -62.96748 | 10789 ft | 343 kts | 230° |
| 2026-04-26 12:51 | 45.22007 | -62.99231 | 10523 ft | 343 kts | 230° |
| 2026-04-26 12:51 | 45.20357 | -63.01744 | 10252 ft | 355 kts | 230° |
| 2026-04-26 12:52 | 45.18665 | -63.04320 | 9986 ft | 356 kts | 230° |
| 2026-04-26 12:52 | 45.16980 | -63.06876 | 9699 ft | 355 kts | 230° |
| 2026-04-26 12:52 | 45.15292 | -63.09424 | 9403 ft | 355 kts | 230° |
| 2026-04-26 12:52 | 45.13600 | -63.11969 | 9098 ft | 353 kts | 230° |
| 2026-04-26 12:53 | 45.11957 | -63.14433 | 8813 ft | 342 kts | 229° |
| 2026-04-26 12:53 | 45.10350 | -63.16832 | 8526 ft | 329 kts | 229° |
| 2026-04-26 12:53 | 45.08806 | -63.19130 | 8236 ft | 315 kts | 229° |
| 2026-04-26 12:53 | 45.07329 | -63.21340 | 7949 ft | 301 kts | 231° |
| 2026-04-26 12:54 | 45.06239 | -63.23750 | 7671 ft | 283 kts | 248° |
| 2026-04-26 12:54 | 45.05370 | -63.26183 | 7384 ft | 271 kts | 248° |
| 2026-04-26 12:54 | 45.04526 | -63.28518 | 7102 ft | 261 kts | 248° |
| 2026-04-26 12:54 | 45.03706 | -63.30768 | 6822 ft | 255 kts | 248° |
| 2026-04-26 12:55 | 45.02894 | -63.32995 | 6556 ft | 255 kts | 248° |
| 2026-04-26 12:55 | 45.02091 | -63.35206 | 6266 ft | 252 kts | 248° |
| 2026-04-26 12:55 | 45.01285 | -63.37430 | 5989 ft | 254 kts | 248° |
| 2026-04-26 12:55 | 45.00490 | -63.39626 | 5707 ft | 247 kts | 248° |
| 2026-04-26 12:56 | 44.99635 | -63.41696 | 5416 ft | 243 kts | 236° |
| 2026-04-26 12:56 | 44.98386 | -63.43245 | 5058 ft | 240 kts | 217° |
| 2026-04-26 12:56 | 44.96925 | -63.44542 | 4120 ft | 259 kts | 213° |
| 2026-04-26 12:56 | 44.95308 | -63.45800 | 2908 ft | 278 kts | 210° |
| 2026-04-26 12:57 | 44.93514 | -63.47032 | 1705 ft | 289 kts | 207° |
| 2026-04-26 12:57 | 44.91773 | -63.48151 | 1398 ft | 259 kts | 208° |
| 2026-04-26 12:57 | 44.90261 | -63.49240 | 988 ft | 227 kts | 219° |
| 2026-04-26 12:58 | 44.87920 | -63.51392 | 462 ft | 176 kts | 219° |
| 2026-04-26 12:58 | 44.87163 | -63.52175 | 462 ft | 92 kts | 213° |
| 2026-04-26 12:58 | 44.86925 | -63.52412 | 462 ft | 6 kts | 245° |
| 2026-04-26 12:58 | 44.86963 | -63.52523 | 463 ft | 11 kts | 339° |
| 2026-04-26 12:59 | 44.86980 | -63.52527 | 463 ft | 0 kts | 348° |
| 2026-04-26 12:59 | 44.87002 | -63.52534 | 463 ft | 10 kts | 348° |
| 2026-04-26 13:00 | 44.87086 | -63.52528 | 463 ft | 13 kts | 16° |
| 2026-04-26 13:00 | 44.87187 | -63.52445 | 463 ft | 20 kts | 34° |
| 2026-04-26 13:00 | 44.87303 | -63.52347 | 463 ft | 17 kts | 12° |
| 2026-04-26 13:00 | 44.87363 | -63.52418 | 463 ft | 0 kts | 302° |
| 2026-04-26 13:01 | 44.87372 | -63.52436 | 463 ft | 0 kts | 304° |